sensor_id;sensor_type;location;lat;lon;timestamp;temperature;humidity
8988;DHT22;4529;51.360;12.474;2024-01-30T00:00:25;3.20;99.90
8988;DHT22;4529;51.360;12.474;2024-01-30T00:05:28;3.10;99.90
8988;DHT22;4529;51.360;12.474;2024-01-30T00:10:32;3.00;99.90
8988;DHT22;4529;51.360;12.474;2024-01-30T00:15:35;3.00;99.90
8988;DHT22;4529;51.360;12.474;2024-01-30T00:20:40;2.90;99.90
8988;DHT22;4529;51.360;12.474;2024-01-30T00:25:43;2.90;99.90
8988;DHT22;4529;51.360;12.474;2024-01-30T00:30:47;2.90;99.90
8988;DHT22;4529;51.360;12.474;2024-01-30T00:35:52;2.90;99.90
8988;DHT22;4529;51.360;12.474;2024-01-30T00:40:55;2.90;99.90
8988;DHT22;4529;51.360;12.474;2024-01-30T00:45:59;2.90;99.90
8988;DHT22;4529;51.360;12.474;2024-01-30T00:51:02;3.00;99.90
8988;DHT22;4529;51.360;12.474;2024-01-30T00:56:06;3.00;99.90
8988;DHT22;4529;51.360;12.474;2024-01-30T01:01:10;3.00;99.90
8988;DHT22;4529;51.360;12.474;2024-01-30T01:06:14;3.10;99.90
8988;DHT22;4529;51.360;12.474;2024-01-30T01:11:18;3.10;99.90
8988;DHT22;4529;51.360;12.474;2024-01-30T01:16:22;3.00;99.90
8988;DHT22;4529;51.360;12.474;2024-01-30T01:21:25;3.10;99.90
8988;DHT22;4529;51.360;12.474;2024-01-30T01:26:29;3.20;99.90
8988;DHT22;4529;51.360;12.474;2024-01-30T01:31:33;3.20;99.90
8988;DHT22;4529;51.360;12.474;2024-01-30T01:36:37;3.20;99.90
8988;DHT22;4529;51.360;12.474;2024-01-30T01:41:41;3.20;99.90
8988;DHT22;4529;51.360;12.474;2024-01-30T01:46:44;3.30;99.90
8988;DHT22;4529;51.360;12.474;2024-01-30T01:51:47;3.40;99.90
8988;DHT22;4529;51.360;12.474;2024-01-30T01:56:51;3.60;99.90
8988;DHT22;4529;51.360;12.474;2024-01-30T02:01:55;3.80;99.90
8988;DHT22;4529;51.360;12.474;2024-01-30T02:06:58;4.00;99.90
8988;DHT22;4529;51.360;12.474;2024-01-30T02:12:03;4.10;99.90
8988;DHT22;4529;51.360;12.474;2024-01-30T02:17:06;4.10;99.90
8988;DHT22;4529;51.360;12.474;2024-01-30T02:22:09;4.20;99.90
8988;DHT22;4529;51.360;12.474;2024-01-30T02:27:13;4.30;99.90
8988;DHT22;4529;51.360;12.474;2024-01-30T02:32:17;4.40;99.90
8988;DHT22;4529;51.360;12.474;2024-01-30T02:37:21;4.40;99.90
8988;DHT22;4529;51.360;12.474;2024-01-30T02:42:25;4.50;99.90
8988;DHT22;4529;51.360;12.474;2024-01-30T02:47:29;4.50;99.90
8988;DHT22;4529;51.360;12.474;2024-01-30T02:52:33;4.50;99.90
8988;DHT22;4529;51.360;12.474;2024-01-30T02:57:36;4.50;99.90
8988;DHT22;4529;51.360;12.474;2024-01-30T03:02:40;4.60;99.90
8988;DHT22;4529;51.360;12.474;2024-01-30T03:07:44;4.50;99.90
8988;DHT22;4529;51.360;12.474;2024-01-30T03:12:48;4.60;99.90
8988;DHT22;4529;51.360;12.474;2024-01-30T03:17:52;4.50;99.90
8988;DHT22;4529;51.360;12.474;2024-01-30T03:22:55;4.50;99.90
8988;DHT22;4529;51.360;12.474;2024-01-30T03:27:58;4.40;99.90
8988;DHT22;4529;51.360;12.474;2024-01-30T03:33:02;4.30;99.90
8988;DHT22;4529;51.360;12.474;2024-01-30T03:38:05;4.20;99.90
8988;DHT22;4529;51.360;12.474;2024-01-30T03:43:10;4.00;99.90
8988;DHT22;4529;51.360;12.474;2024-01-30T03:48:15;3.90;99.90
8988;DHT22;4529;51.360;12.474;2024-01-30T03:53:19;3.90;99.90
8988;DHT22;4529;51.360;12.474;2024-01-30T03:58:23;3.90;99.90
8988;DHT22;4529;51.360;12.474;2024-01-30T04:03:26;3.90;99.90
8988;DHT22;4529;51.360;12.474;2024-01-30T04:08:30;4.00;99.90
8988;DHT22;4529;51.360;12.474;2024-01-30T04:13:33;4.30;99.90
8988;DHT22;4529;51.360;12.474;2024-01-30T04:18:37;4.60;99.90
8988;DHT22;4529;51.360;12.474;2024-01-30T04:23:41;4.60;99.90
8988;DHT22;4529;51.360;12.474;2024-01-30T04:28:45;4.60;99.90
8988;DHT22;4529;51.360;12.474;2024-01-30T04:33:48;4.80;99.90
8988;DHT22;4529;51.360;12.474;2024-01-30T04:38:52;5.10;99.90
8988;DHT22;4529;51.360;12.474;2024-01-30T04:43:55;5.10;99.90
8988;DHT22;4529;51.360;12.474;2024-01-30T04:48:59;5.20;99.90
8988;DHT22;4529;51.360;12.474;2024-01-30T04:54:03;5.30;99.90
8988;DHT22;4529;51.360;12.474;2024-01-30T04:59:07;5.40;99.90
8988;DHT22;4529;51.360;12.474;2024-01-30T05:04:10;5.40;99.90
8988;DHT22;4529;51.360;12.474;2024-01-30T05:09:14;5.30;99.90
8988;DHT22;4529;51.360;12.474;2024-01-30T05:14:17;5.30;99.90
8988;DHT22;4529;51.360;12.474;2024-01-30T05:19:21;5.20;99.90
8988;DHT22;4529;51.360;12.474;2024-01-30T05:24:25;4.90;99.90
8988;DHT22;4529;51.360;12.474;2024-01-30T05:29:30;4.80;99.90
8988;DHT22;4529;51.360;12.474;2024-01-30T05:34:35;4.90;99.90
8988;DHT22;4529;51.360;12.474;2024-01-30T05:39:37;4.80;99.90
8988;DHT22;4529;51.360;12.474;2024-01-30T05:44:41;4.90;99.90
8988;DHT22;4529;51.360;12.474;2024-01-30T05:49:44;4.90;99.90
8988;DHT22;4529;51.360;12.474;2024-01-30T05:54:48;5.20;99.90
8988;DHT22;4529;51.360;12.474;2024-01-30T05:59:52;5.30;99.90
8988;DHT22;4529;51.360;12.474;2024-01-30T06:04:56;5.50;99.90
8988;DHT22;4529;51.360;12.474;2024-01-30T06:10:01;5.40;99.90
8988;DHT22;4529;51.360;12.474;2024-01-30T06:15:05;5.50;99.90
8988;DHT22;4529;51.360;12.474;2024-01-30T06:20:09;5.60;99.90
8988;DHT22;4529;51.360;12.474;2024-01-30T06:25:13;5.50;99.90
8988;DHT22;4529;51.360;12.474;2024-01-30T06:30:16;5.50;99.90
8988;DHT22;4529;51.360;12.474;2024-01-30T06:35:20;5.40;99.90
8988;DHT22;4529;51.360;12.474;2024-01-30T06:40:23;5.40;99.90
8988;DHT22;4529;51.360;12.474;2024-01-30T06:45:27;5.50;99.90
8988;DHT22;4529;51.360;12.474;2024-01-30T06:50:30;5.50;99.90
8988;DHT22;4529;51.360;12.474;2024-01-30T06:55:34;5.20;99.90
8988;DHT22;4529;51.360;12.474;2024-01-30T07:00:38;5.20;99.90
8988;DHT22;4529;51.360;12.474;2024-01-30T07:05:42;5.20;99.90
8988;DHT22;4529;51.360;12.474;2024-01-30T07:10:45;5.10;99.90
8988;DHT22;4529;51.360;12.474;2024-01-30T07:15:49;5.20;99.90
8988;DHT22;4529;51.360;12.474;2024-01-30T07:20:53;5.40;99.90
8988;DHT22;4529;51.360;12.474;2024-01-30T07:25:57;5.50;99.90
8988;DHT22;4529;51.360;12.474;2024-01-30T07:31:01;5.60;99.90
8988;DHT22;4529;51.360;12.474;2024-01-30T07:36:05;5.70;99.90
8988;DHT22;4529;51.360;12.474;2024-01-30T07:41:09;5.70;99.90
8988;DHT22;4529;51.360;12.474;2024-01-30T07:46:13;5.80;99.90
8988;DHT22;4529;51.360;12.474;2024-01-30T07:51:17;5.90;99.90
8988;DHT22;4529;51.360;12.474;2024-01-30T07:56:21;5.90;99.90
8988;DHT22;4529;51.360;12.474;2024-01-30T08:01:26;6.00;99.90
8988;DHT22;4529;51.360;12.474;2024-01-30T08:06:29;6.00;99.90
8988;DHT22;4529;51.360;12.474;2024-01-30T08:11:33;6.10;99.90
8988;DHT22;4529;51.360;12.474;2024-01-30T08:16:37;6.20;99.90
8988;DHT22;4529;51.360;12.474;2024-01-30T08:21:41;6.20;99.90
8988;DHT22;4529;51.360;12.474;2024-01-30T08:26:45;6.40;99.90
8988;DHT22;4529;51.360;12.474;2024-01-30T08:31:48;6.40;99.90
8988;DHT22;4529;51.360;12.474;2024-01-30T08:36:52;6.50;99.90
8988;DHT22;4529;51.360;12.474;2024-01-30T08:41:55;6.50;99.90
8988;DHT22;4529;51.360;12.474;2024-01-30T08:47:00;6.70;99.90
8988;DHT22;4529;51.360;12.474;2024-01-30T08:52:04;6.80;99.90
8988;DHT22;4529;51.360;12.474;2024-01-30T08:57:07;6.80;99.90
8988;DHT22;4529;51.360;12.474;2024-01-30T09:02:11;6.90;99.90
8988;DHT22;4529;51.360;12.474;2024-01-30T09:07:15;7.10;99.90
8988;DHT22;4529;51.360;12.474;2024-01-30T09:12:19;7.20;99.90
8988;DHT22;4529;51.360;12.474;2024-01-30T09:17:23;7.30;99.90
8988;DHT22;4529;51.360;12.474;2024-01-30T09:22:27;7.40;99.90
8988;DHT22;4529;51.360;12.474;2024-01-30T09:27:31;7.50;99.90
8988;DHT22;4529;51.360;12.474;2024-01-30T09:32:35;7.50;99.90
8988;DHT22;4529;51.360;12.474;2024-01-30T09:37:39;7.70;99.90
8988;DHT22;4529;51.360;12.474;2024-01-30T09:42:43;7.80;99.90
8988;DHT22;4529;51.360;12.474;2024-01-30T09:47:47;7.90;99.90
8988;DHT22;4529;51.360;12.474;2024-01-30T09:52:51;7.90;99.90
8988;DHT22;4529;51.360;12.474;2024-01-30T09:57:54;8.00;99.90
8988;DHT22;4529;51.360;12.474;2024-01-30T10:02:58;8.20;99.90
8988;DHT22;4529;51.360;12.474;2024-01-30T10:08:05;8.60;99.90
8988;DHT22;4529;51.360;12.474;2024-01-30T10:13:06;8.80;99.90
8988;DHT22;4529;51.360;12.474;2024-01-30T10:18:10;8.80;99.90
8988;DHT22;4529;51.360;12.474;2024-01-30T10:23:14;9.00;99.90
8988;DHT22;4529;51.360;12.474;2024-01-30T10:28:18;9.10;99.90
8988;DHT22;4529;51.360;12.474;2024-01-30T10:33:22;9.20;99.90
8988;DHT22;4529;51.360;12.474;2024-01-30T10:38:27;9.30;99.90
8988;DHT22;4529;51.360;12.474;2024-01-30T10:43:36;9.40;99.90
8988;DHT22;4529;51.360;12.474;2024-01-30T10:48:36;9.40;99.90
8988;DHT22;4529;51.360;12.474;2024-01-30T10:53:41;9.60;99.90
8988;DHT22;4529;51.360;12.474;2024-01-30T10:58:45;9.70;99.90
8988;DHT22;4529;51.360;12.474;2024-01-30T11:03:51;9.80;99.90
8988;DHT22;4529;51.360;12.474;2024-01-30T11:09:05;10.00;99.90
8988;DHT22;4529;51.360;12.474;2024-01-30T11:14:09;9.90;99.90
8988;DHT22;4529;51.360;12.474;2024-01-30T11:19:12;10.10;99.90
8988;DHT22;4529;51.360;12.474;2024-01-30T11:24:16;10.20;99.90
8988;DHT22;4529;51.360;12.474;2024-01-30T11:29:24;10.30;99.90
8988;DHT22;4529;51.360;12.474;2024-01-30T11:34:25;10.40;99.90
8988;DHT22;4529;51.360;12.474;2024-01-30T11:39:32;10.40;99.90
8988;DHT22;4529;51.360;12.474;2024-01-30T11:44:36;10.50;99.90
8988;DHT22;4529;51.360;12.474;2024-01-30T11:49:40;10.60;99.90
8988;DHT22;4529;51.360;12.474;2024-01-30T11:54:44;10.70;99.90
8988;DHT22;4529;51.360;12.474;2024-01-30T11:59:48;10.70;99.90
8988;DHT22;4529;51.360;12.474;2024-01-30T12:04:52;10.90;99.90
8988;DHT22;4529;51.360;12.474;2024-01-30T12:09:56;11.00;99.90
8988;DHT22;4529;51.360;12.474;2024-01-30T12:15:01;11.20;99.90
8988;DHT22;4529;51.360;12.474;2024-01-30T12:20:12;11.30;99.90
8988;DHT22;4529;51.360;12.474;2024-01-30T12:25:16;11.50;99.90
8988;DHT22;4529;51.360;12.474;2024-01-30T12:30:17;11.60;99.90
8988;DHT22;4529;51.360;12.474;2024-01-30T12:35:21;11.70;99.90
8988;DHT22;4529;51.360;12.474;2024-01-30T12:40:24;11.70;99.90
8988;DHT22;4529;51.360;12.474;2024-01-30T12:45:29;11.80;99.90
8988;DHT22;4529;51.360;12.474;2024-01-30T12:50:33;11.90;99.90
8988;DHT22;4529;51.360;12.474;2024-01-30T12:55:37;11.90;99.90
8988;DHT22;4529;51.360;12.474;2024-01-30T13:00:40;11.90;99.90
8988;DHT22;4529;51.360;12.474;2024-01-30T13:05:44;12.00;99.90
8988;DHT22;4529;51.360;12.474;2024-01-30T13:10:47;12.10;99.90
8988;DHT22;4529;51.360;12.474;2024-01-30T13:15:51;12.10;99.90
8988;DHT22;4529;51.360;12.474;2024-01-30T13:20:55;12.20;99.90
8988;DHT22;4529;51.360;12.474;2024-01-30T13:25:58;12.10;99.90
8988;DHT22;4529;51.360;12.474;2024-01-30T13:31:02;12.20;99.90
8988;DHT22;4529;51.360;12.474;2024-01-30T13:36:10;12.20;99.90
8988;DHT22;4529;51.360;12.474;2024-01-30T13:41:12;12.10;99.90
8988;DHT22;4529;51.360;12.474;2024-01-30T13:46:16;12.20;99.90
8988;DHT22;4529;51.360;12.474;2024-01-30T13:51:19;12.10;99.90
8988;DHT22;4529;51.360;12.474;2024-01-30T13:56:22;12.10;99.90
8988;DHT22;4529;51.360;12.474;2024-01-30T14:01:26;12.10;99.90
8988;DHT22;4529;51.360;12.474;2024-01-30T14:06:29;12.00;99.90
8988;DHT22;4529;51.360;12.474;2024-01-30T14:11:34;12.00;99.90
8988;DHT22;4529;51.360;12.474;2024-01-30T14:16:37;12.00;99.90
8988;DHT22;4529;51.360;12.474;2024-01-30T14:21:40;12.00;99.90
8988;DHT22;4529;51.360;12.474;2024-01-30T14:26:45;11.90;99.90
8988;DHT22;4529;51.360;12.474;2024-01-30T14:31:48;11.90;99.90
8988;DHT22;4529;51.360;12.474;2024-01-30T14:36:52;11.90;99.90
8988;DHT22;4529;51.360;12.474;2024-01-30T14:41:56;11.80;99.90
8988;DHT22;4529;51.360;12.474;2024-01-30T14:47:00;11.90;99.90
8988;DHT22;4529;51.360;12.474;2024-01-30T14:52:04;11.80;99.90
8988;DHT22;4529;51.360;12.474;2024-01-30T14:57:07;11.80;99.90
8988;DHT22;4529;51.360;12.474;2024-01-30T15:02:10;11.80;99.90
8988;DHT22;4529;51.360;12.474;2024-01-30T15:07:14;11.80;99.90
8988;DHT22;4529;51.360;12.474;2024-01-30T15:12:17;11.80;99.90
8988;DHT22;4529;51.360;12.474;2024-01-30T15:17:21;11.80;99.90
8988;DHT22;4529;51.360;12.474;2024-01-30T15:22:24;11.70;99.90
8988;DHT22;4529;51.360;12.474;2024-01-30T15:27:28;11.60;99.90
8988;DHT22;4529;51.360;12.474;2024-01-30T15:32:31;11.70;99.90
8988;DHT22;4529;51.360;12.474;2024-01-30T15:37:35;11.60;99.90
8988;DHT22;4529;51.360;12.474;2024-01-30T15:42:38;11.50;99.90
8988;DHT22;4529;51.360;12.474;2024-01-30T15:47:42;11.50;99.90
8988;DHT22;4529;51.360;12.474;2024-01-30T15:52:45;11.40;99.90
8988;DHT22;4529;51.360;12.474;2024-01-30T15:57:49;11.20;99.90
8988;DHT22;4529;51.360;12.474;2024-01-30T16:02:52;10.70;99.90
8988;DHT22;4529;51.360;12.474;2024-01-30T16:07:55;10.50;99.90
8988;DHT22;4529;51.360;12.474;2024-01-30T16:12:59;10.30;99.90
8988;DHT22;4529;51.360;12.474;2024-01-30T16:18:02;10.20;99.90
8988;DHT22;4529;51.360;12.474;2024-01-30T16:23:06;10.10;99.90
8988;DHT22;4529;51.360;12.474;2024-01-30T16:28:09;10.10;99.90
8988;DHT22;4529;51.360;12.474;2024-01-30T16:33:13;10.10;99.90
8988;DHT22;4529;51.360;12.474;2024-01-30T16:38:17;10.10;99.90
8988;DHT22;4529;51.360;12.474;2024-01-30T16:43:21;10.20;99.90
8988;DHT22;4529;51.360;12.474;2024-01-30T16:48:26;10.20;99.90
8988;DHT22;4529;51.360;12.474;2024-01-30T16:53:28;10.20;99.90
8988;DHT22;4529;51.360;12.474;2024-01-30T16:58:31;10.30;99.90
8988;DHT22;4529;51.360;12.474;2024-01-30T17:03:35;10.20;99.90
8988;DHT22;4529;51.360;12.474;2024-01-30T17:08:38;10.20;99.90
8988;DHT22;4529;51.360;12.474;2024-01-30T17:13:42;10.20;99.90
8988;DHT22;4529;51.360;12.474;2024-01-30T17:18:45;10.20;99.90
8988;DHT22;4529;51.360;12.474;2024-01-30T17:23:49;10.20;99.90
8988;DHT22;4529;51.360;12.474;2024-01-30T17:28:52;10.00;99.90
8988;DHT22;4529;51.360;12.474;2024-01-30T17:33:56;9.60;99.90
8988;DHT22;4529;51.360;12.474;2024-01-30T17:38:59;9.50;99.90
8988;DHT22;4529;51.360;12.474;2024-01-30T17:44:03;9.40;99.90
8988;DHT22;4529;51.360;12.474;2024-01-30T17:49:06;9.30;99.90
8988;DHT22;4529;51.360;12.474;2024-01-30T17:54:10;9.20;99.90
8988;DHT22;4529;51.360;12.474;2024-01-30T17:59:14;9.10;99.90
8988;DHT22;4529;51.360;12.474;2024-01-30T18:04:18;9.10;99.90
8988;DHT22;4529;51.360;12.474;2024-01-30T18:09:22;9.00;99.90
8988;DHT22;4529;51.360;12.474;2024-01-30T18:14:25;9.00;99.90
8988;DHT22;4529;51.360;12.474;2024-01-30T18:19:29;9.00;99.90
8988;DHT22;4529;51.360;12.474;2024-01-30T18:24:32;8.90;99.90
8988;DHT22;4529;51.360;12.474;2024-01-30T18:29:36;8.80;99.90
8988;DHT22;4529;51.360;12.474;2024-01-30T18:34:41;8.80;99.90
8988;DHT22;4529;51.360;12.474;2024-01-30T18:39:45;8.70;99.90
8988;DHT22;4529;51.360;12.474;2024-01-30T18:44:49;8.70;99.90
8988;DHT22;4529;51.360;12.474;2024-01-30T18:49:52;8.70;99.90
8988;DHT22;4529;51.360;12.474;2024-01-30T18:54:56;8.60;99.90
8988;DHT22;4529;51.360;12.474;2024-01-30T19:00:00;8.60;99.90
8988;DHT22;4529;51.360;12.474;2024-01-30T19:05:05;8.50;99.90
8988;DHT22;4529;51.360;12.474;2024-01-30T19:10:09;8.50;99.90
8988;DHT22;4529;51.360;12.474;2024-01-30T19:15:13;8.40;99.90
8988;DHT22;4529;51.360;12.474;2024-01-30T19:20:17;8.20;99.90
8988;DHT22;4529;51.360;12.474;2024-01-30T19:25:21;8.10;99.90
8988;DHT22;4529;51.360;12.474;2024-01-30T19:30:25;8.10;99.90
8988;DHT22;4529;51.360;12.474;2024-01-30T19:35:29;8.00;99.90
8988;DHT22;4529;51.360;12.474;2024-01-30T19:40:34;8.00;99.90
8988;DHT22;4529;51.360;12.474;2024-01-30T19:45:37;8.00;99.90
8988;DHT22;4529;51.360;12.474;2024-01-30T19:50:40;7.90;99.90
8988;DHT22;4529;51.360;12.474;2024-01-30T19:55:45;7.90;99.90
8988;DHT22;4529;51.360;12.474;2024-01-30T20:00:49;7.80;99.90
8988;DHT22;4529;51.360;12.474;2024-01-30T20:05:53;7.80;99.90
8988;DHT22;4529;51.360;12.474;2024-01-30T20:10:57;7.70;99.90
8988;DHT22;4529;51.360;12.474;2024-01-30T20:16:01;7.70;99.90
8988;DHT22;4529;51.360;12.474;2024-01-30T20:21:05;7.70;99.90
8988;DHT22;4529;51.360;12.474;2024-01-30T20:26:09;7.90;99.90
8988;DHT22;4529;51.360;12.474;2024-01-30T20:31:13;8.20;99.90
8988;DHT22;4529;51.360;12.474;2024-01-30T20:36:18;8.40;99.90
8988;DHT22;4529;51.360;12.474;2024-01-30T20:41:21;8.60;99.90
8988;DHT22;4529;51.360;12.474;2024-01-30T20:46:25;8.70;99.90
8988;DHT22;4529;51.360;12.474;2024-01-30T20:51:29;8.70;99.90
8988;DHT22;4529;51.360;12.474;2024-01-30T20:56:32;8.80;99.90
8988;DHT22;4529;51.360;12.474;2024-01-30T21:01:36;9.00;99.90
8988;DHT22;4529;51.360;12.474;2024-01-30T21:06:41;9.10;99.90
8988;DHT22;4529;51.360;12.474;2024-01-30T21:11:45;9.10;99.90
8988;DHT22;4529;51.360;12.474;2024-01-30T21:16:49;9.10;99.90
8988;DHT22;4529;51.360;12.474;2024-01-30T21:21:53;9.00;99.90
8988;DHT22;4529;51.360;12.474;2024-01-30T21:26:57;8.60;99.90
8988;DHT22;4529;51.360;12.474;2024-01-30T21:32:01;8.40;99.90
8988;DHT22;4529;51.360;12.474;2024-01-30T21:37:05;8.20;99.90
8988;DHT22;4529;51.360;12.474;2024-01-30T21:42:09;8.10;99.90
8988;DHT22;4529;51.360;12.474;2024-01-30T21:47:14;8.10;99.90
8988;DHT22;4529;51.360;12.474;2024-01-30T21:52:17;8.10;99.90
8988;DHT22;4529;51.360;12.474;2024-01-30T21:57:21;8.10;99.90
8988;DHT22;4529;51.360;12.474;2024-01-30T22:02:24;8.10;99.90
8988;DHT22;4529;51.360;12.474;2024-01-30T22:07:27;8.00;99.90
8988;DHT22;4529;51.360;12.474;2024-01-30T22:12:32;8.00;99.90
8988;DHT22;4529;51.360;12.474;2024-01-30T22:17:35;8.10;99.90
8988;DHT22;4529;51.360;12.474;2024-01-30T22:22:39;8.10;99.90
8988;DHT22;4529;51.360;12.474;2024-01-30T22:27:44;8.20;99.90
8988;DHT22;4529;51.360;12.474;2024-01-30T22:32:48;8.20;99.90
8988;DHT22;4529;51.360;12.474;2024-01-30T22:37:52;8.20;99.90
8988;DHT22;4529;51.360;12.474;2024-01-30T22:42:56;8.30;99.90
8988;DHT22;4529;51.360;12.474;2024-01-30T22:48:00;8.30;99.90
8988;DHT22;4529;51.360;12.474;2024-01-30T22:53:04;8.30;99.90
8988;DHT22;4529;51.360;12.474;2024-01-30T22:58:07;8.30;99.90
8988;DHT22;4529;51.360;12.474;2024-01-30T23:03:11;8.50;99.90
8988;DHT22;4529;51.360;12.474;2024-01-30T23:08:14;8.60;99.90
8988;DHT22;4529;51.360;12.474;2024-01-30T23:13:18;8.70;99.90
8988;DHT22;4529;51.360;12.474;2024-01-30T23:18:22;8.80;99.90
8988;DHT22;4529;51.360;12.474;2024-01-30T23:23:26;8.80;99.90
8988;DHT22;4529;51.360;12.474;2024-01-30T23:28:31;8.80;99.90
8988;DHT22;4529;51.360;12.474;2024-01-30T23:33:34;8.80;99.90
8988;DHT22;4529;51.360;12.474;2024-01-30T23:38:38;8.80;99.90
8988;DHT22;4529;51.360;12.474;2024-01-30T23:43:41;8.80;99.90
8988;DHT22;4529;51.360;12.474;2024-01-30T23:48:44;8.90;99.90
8988;DHT22;4529;51.360;12.474;2024-01-30T23:53:53;8.80;99.90
8988;DHT22;4529;51.360;12.474;2024-01-30T23:58:56;8.70;99.90
